createdAt,value
2017-05-11T00:00:05.706Z,999.35
2017-05-11T00:00:31.800Z,999.33
2017-05-11T00:00:57.889Z,999.29
2017-05-11T00:01:23.998Z,999.31
2017-05-11T00:01:50.082Z,999.31
2017-05-11T00:02:16.179Z,999.34
2017-05-11T00:02:42.296Z,999.33
2017-05-11T00:03:08.418Z,999.29
2017-05-11T00:03:34.523Z,999.27
2017-05-11T00:04:00.674Z,999.26
2017-05-11T00:04:26.790Z,999.28
2017-05-11T00:04:52.873Z,999.28
2017-05-11T00:05:18.968Z,999.28
2017-05-11T00:05:45.056Z,999.28
2017-05-11T00:06:11.146Z,999.31
2017-05-11T00:06:37.275Z,999.25
2017-05-11T00:07:03.323Z,999.25
2017-05-11T00:07:29.412Z,999.24
2017-05-11T00:07:55.509Z,999.27
2017-05-11T00:08:21.590Z,999.26
2017-05-11T00:08:47.706Z,999.3
2017-05-11T00:09:13.835Z,999.28
2017-05-11T00:09:39.972Z,999.24
2017-05-11T00:10:06.067Z,999.22
2017-05-11T00:10:32.151Z,999.27
2017-05-11T00:10:58.243Z,999.21
2017-05-11T00:11:24.319Z,999.23
2017-05-11T00:11:50.421Z,999.23
2017-05-11T00:12:16.510Z,999.21
2017-05-11T00:12:42.609Z,999.22
2017-05-11T00:13:08.691Z,999.18
2017-05-11T00:13:34.803Z,999.16
2017-05-11T00:14:00.885Z,999.19
2017-05-11T00:14:26.961Z,999.24
2017-05-11T00:14:53.071Z,999.16
2017-05-11T00:15:19.147Z,999.18
2017-05-11T00:15:45.261Z,999.18
2017-05-11T00:16:11.365Z,999.2
2017-05-11T00:16:37.440Z,999.16
2017-05-11T00:17:03.531Z,999.2
2017-05-11T00:17:29.612Z,999.18
2017-05-11T00:17:55.727Z,999.18
2017-05-11T00:18:21.840Z,999.13
2017-05-11T00:18:48.022Z,999.21
2017-05-11T00:19:14.115Z,999.19
2017-05-11T00:19:40.225Z,999.17
2017-05-11T00:20:06.341Z,999.18
2017-05-11T00:20:32.465Z,999.19
2017-05-11T00:20:58.566Z,999.17
2017-05-11T00:21:24.661Z,999.17
2017-05-11T00:21:50.776Z,999.17
2017-05-11T00:22:16.908Z,999.14
2017-05-11T00:22:42.981Z,999.15
2017-05-11T00:23:09.112Z,999.15
2017-05-11T00:23:35.228Z,999.11
2017-05-11T00:24:01.299Z,999.17
2017-05-11T00:24:27.448Z,999.14
2017-05-11T00:24:53.558Z,999.14
2017-05-11T00:25:19.657Z,999.14
2017-05-11T00:25:45.761Z,999.12
2017-05-11T00:26:11.877Z,999.11
2017-05-11T00:26:37.951Z,999.13
2017-05-11T00:27:04.070Z,999.1
2017-05-11T00:27:30.185Z,999.11
2017-05-11T00:27:56.293Z,999.06
2017-05-11T00:28:22.412Z,999.08
2017-05-11T00:28:48.550Z,999.05
2017-05-11T00:29:14.665Z,999.05
2017-05-11T00:29:40.764Z,999.03
2017-05-11T00:30:06.898Z,999.01
2017-05-11T00:30:33.030Z,999.05
2017-05-11T00:30:59.141Z,999
2017-05-11T00:31:25.274Z,999.03
2017-05-11T00:31:51.360Z,998.97
2017-05-11T00:32:17.517Z,998.98
2017-05-11T00:32:43.669Z,998.93
2017-05-11T00:33:09.757Z,998.95
2017-05-11T00:33:35.910Z,998.97
2017-05-11T00:34:02.095Z,998.98
2017-05-11T00:34:28.183Z,998.97
2017-05-11T00:34:54.329Z,998.97
2017-05-11T00:35:20.435Z,998.97
2017-05-11T00:35:46.548Z,998.97
2017-05-11T00:36:12.690Z,998.93
2017-05-11T00:36:38.765Z,998.99
2017-05-11T00:37:04.858Z,999
2017-05-11T00:37:30.985Z,998.96
2017-05-11T00:37:57.093Z,998.98
2017-05-11T00:38:23.192Z,998.94
2017-05-11T00:38:49.380Z,998.97
2017-05-11T00:39:15.493Z,998.91
2017-05-11T00:39:41.637Z,998.95
2017-05-11T00:40:07.768Z,998.96
2017-05-11T00:40:33.859Z,998.92
2017-05-11T00:40:59.949Z,998.92
2017-05-11T00:41:26.058Z,998.9
2017-05-11T00:41:52.178Z,998.9
2017-05-11T00:42:18.268Z,998.9
2017-05-11T00:42:44.425Z,998.88
2017-05-11T00:43:10.543Z,998.91
2017-05-11T00:43:36.673Z,998.87
2017-05-11T00:44:02.788Z,998.89
2017-05-11T00:44:28.877Z,998.9
2017-05-11T00:44:55.012Z,998.85
2017-05-11T00:45:21.133Z,998.88
2017-05-11T00:45:47.248Z,998.86
2017-05-11T00:46:13.377Z,998.85
2017-05-11T00:46:39.475Z,998.85
2017-05-11T00:47:05.589Z,998.86
2017-05-11T00:47:31.689Z,998.84
2017-05-11T00:47:57.817Z,998.84
2017-05-11T00:48:23.935Z,998.86
2017-05-11T00:48:50.086Z,998.82
2017-05-11T00:49:16.200Z,998.81
2017-05-11T00:49:42.353Z,998.8
2017-05-11T00:50:08.450Z,998.81
2017-05-11T00:50:34.567Z,998.82
2017-05-11T00:51:00.664Z,998.79
2017-05-11T00:51:26.797Z,998.78
2017-05-11T00:51:52.884Z,998.77
2017-05-11T00:52:19.028Z,998.77
2017-05-11T00:52:45.160Z,998.76
2017-05-11T00:53:11.249Z,998.79
2017-05-11T00:53:37.390Z,998.78
2017-05-11T00:54:03.514Z,998.75
2017-05-11T00:54:29.695Z,998.7
2017-05-11T00:54:55.827Z,998.73
2017-05-11T00:55:21.940Z,998.78
2017-05-11T00:55:48.059Z,998.75
2017-05-11T00:56:14.188Z,998.74
2017-05-11T00:56:40.276Z,998.7
2017-05-11T00:57:06.370Z,998.71
2017-05-11T00:57:32.531Z,998.68
2017-05-11T00:57:58.702Z,998.73
2017-05-11T00:58:24.817Z,998.69
2017-05-11T00:58:50.924Z,998.67
2017-05-11T00:59:17.074Z,998.69
2017-05-11T00:59:43.229Z,998.68
2017-05-11T01:00:09.343Z,998.64
2017-05-11T01:00:35.435Z,998.68
2017-05-11T01:01:01.541Z,998.64
2017-05-11T01:01:27.684Z,998.68
2017-05-11T01:01:53.914Z,998.66
2017-05-11T01:02:20.030Z,998.65
2017-05-11T01:02:46.195Z,998.6
2017-05-11T01:03:12.309Z,998.59
2017-05-11T01:03:38.440Z,998.62
2017-05-11T01:04:04.592Z,998.63
2017-05-11T01:04:30.728Z,998.59
2017-05-11T01:04:56.833Z,998.58
2017-05-11T01:05:22.987Z,998.6
2017-05-11T01:05:49.095Z,998.56
2017-05-11T01:06:15.260Z,998.54
2017-05-11T01:06:41.372Z,998.54
2017-05-11T01:07:07.478Z,998.54
2017-05-11T01:07:33.575Z,998.56
2017-05-11T01:07:59.713Z,998.53
2017-05-11T01:08:25.842Z,998.49
2017-05-11T01:08:52.001Z,998.5
2017-05-11T01:09:18.161Z,998.5
2017-05-11T01:09:44.259Z,998.52
2017-05-11T01:10:10.362Z,998.52
2017-05-11T01:10:36.451Z,998.47
2017-05-11T01:11:02.545Z,998.5
2017-05-11T01:11:28.649Z,998.48
2017-05-11T01:11:54.771Z,998.45
2017-05-11T01:12:20.882Z,998.44
2017-05-11T01:12:47.045Z,998.46
2017-05-11T01:13:13.169Z,998.46
2017-05-11T01:13:39.307Z,998.48
2017-05-11T01:14:05.464Z,998.43
2017-05-11T01:14:31.710Z,998.45
2017-05-11T01:14:57.846Z,998.41
2017-05-11T01:15:23.951Z,998.44
2017-05-11T01:15:50.083Z,998.39
2017-05-11T01:16:16.203Z,998.41
2017-05-11T01:16:42.295Z,998.38
2017-05-11T01:17:08.413Z,998.42
2017-05-11T01:17:34.541Z,998.38
2017-05-11T01:18:00.763Z,998.41
2017-05-11T01:18:26.876Z,998.43
2017-05-11T01:18:53.005Z,998.36
2017-05-11T01:19:19.163Z,998.36
2017-05-11T01:19:45.324Z,998.38
2017-05-11T01:20:11.420Z,998.37
2017-05-11T01:20:37.527Z,998.38
2017-05-11T01:21:03.639Z,998.4
2017-05-11T01:21:29.757Z,998.34
2017-05-11T01:21:55.851Z,998.37
2017-05-11T01:22:21.978Z,998.36
2017-05-11T01:22:48.135Z,998.38
2017-05-11T01:23:14.271Z,998.35
2017-05-11T01:23:40.392Z,998.35
2017-05-11T01:24:06.496Z,998.32
2017-05-11T01:24:32.785Z,998.29
2017-05-11T01:24:58.878Z,998.28
2017-05-11T01:25:25.037Z,998.31
2017-05-11T01:25:51.129Z,998.31
2017-05-11T01:26:17.246Z,998.32
2017-05-11T01:26:43.350Z,998.33
2017-05-11T01:27:09.446Z,998.32
2017-05-11T01:27:35.575Z,998.33
2017-05-11T01:28:01.713Z,998.28
2017-05-11T01:28:27.859Z,998.29
2017-05-11T01:28:54.018Z,998.3
2017-05-11T01:29:20.156Z,998.23
2017-05-11T01:29:46.275Z,998.28
2017-05-11T01:30:12.410Z,998.25
2017-05-11T01:30:38.505Z,998.24
2017-05-11T01:31:04.618Z,998.2
2017-05-11T01:31:30.774Z,998.28
2017-05-11T01:31:56.899Z,998.23
2017-05-11T01:32:22.986Z,998.27
2017-05-11T01:32:49.114Z,998.25
2017-05-11T01:33:15.282Z,998.24
2017-05-11T01:33:41.389Z,998.27
2017-05-11T01:34:07.510Z,998.23
2017-05-11T01:34:33.623Z,998.25
2017-05-11T01:34:59.786Z,998.3
2017-05-11T01:35:25.912Z,998.26
2017-05-11T01:35:51.999Z,998.23
2017-05-11T01:36:18.102Z,998.21
2017-05-11T01:36:44.235Z,998.24
2017-05-11T01:37:10.346Z,998.22
2017-05-11T01:37:36.446Z,998.21
2017-05-11T01:38:02.606Z,998.21
2017-05-11T01:38:28.722Z,998.17
2017-05-11T01:38:54.873Z,998.17
2017-05-11T01:39:20.987Z,998.22
2017-05-11T01:39:47.163Z,998.14
2017-05-11T01:40:13.294Z,998.19
2017-05-11T01:40:39.380Z,998.16
2017-05-11T01:41:05.505Z,998.19
2017-05-11T01:41:31.636Z,998.17
2017-05-11T01:41:57.725Z,998.15
2017-05-11T01:42:23.820Z,998.15
2017-05-11T01:42:49.980Z,998.16
2017-05-11T01:43:16.072Z,998.17
2017-05-11T01:43:42.160Z,998.14
2017-05-11T01:44:08.287Z,998.12
2017-05-11T01:44:34.409Z,998.11
2017-05-11T01:45:00.542Z,998.07
2017-05-11T01:45:26.629Z,998.07
2017-05-11T01:45:52.750Z,998.1
2017-05-11T01:46:18.853Z,998.07
2017-05-11T01:46:44.981Z,998.04
2017-05-11T01:47:11.079Z,998.03
2017-05-11T01:47:37.213Z,998.04
2017-05-11T01:48:03.331Z,997.99
2017-05-11T01:48:29.420Z,998.01
2017-05-11T01:48:55.550Z,997.94
2017-05-11T01:49:21.650Z,997.93
2017-05-11T01:49:47.748Z,997.96
2017-05-11T01:50:13.892Z,997.96
2017-05-11T01:50:39.983Z,997.93
2017-05-11T01:51:06.114Z,997.92
2017-05-11T01:51:32.210Z,997.94
2017-05-11T01:51:58.298Z,997.9
2017-05-11T01:52:24.452Z,997.88
2017-05-11T01:52:50.577Z,997.92
2017-05-11T01:53:16.667Z,997.87
2017-05-11T01:53:42.839Z,997.85
2017-05-11T01:54:09.023Z,997.89
2017-05-11T01:54:35.156Z,997.91
2017-05-11T01:55:01.303Z,997.88
2017-05-11T01:55:27.439Z,997.9
2017-05-11T01:55:53.546Z,997.89
2017-05-11T01:56:19.642Z,997.87
2017-05-11T01:56:45.798Z,997.9
2017-05-11T01:57:11.915Z,997.83
2017-05-11T01:57:38.004Z,997.86
2017-05-11T01:58:04.165Z,997.89
2017-05-11T01:58:30.313Z,997.88
2017-05-11T01:58:56.451Z,997.83
2017-05-11T01:59:22.608Z,997.84
2017-05-11T01:59:48.707Z,997.83
2017-05-11T02:00:14.818Z,997.88
2017-05-11T02:00:40.944Z,997.83
2017-05-11T02:01:07.060Z,997.85
2017-05-11T02:01:33.164Z,997.81
2017-05-11T02:01:59.261Z,997.8
2017-05-11T02:02:25.397Z,997.81
2017-05-11T02:02:51.530Z,997.81
2017-05-11T02:03:17.656Z,997.81
2017-05-11T02:03:43.795Z,997.8
2017-05-11T02:04:09.978Z,997.79
2017-05-11T02:04:36.139Z,997.81
2017-05-11T02:05:02.227Z,997.78
2017-05-11T02:05:28.323Z,997.75
2017-05-11T02:05:54.484Z,997.75
2017-05-11T02:06:20.571Z,997.75
2017-05-11T02:06:46.700Z,997.73
2017-05-11T02:07:12.860Z,997.74
2017-05-11T02:07:38.963Z,997.7
2017-05-11T02:08:05.122Z,997.71
2017-05-11T02:08:31.230Z,997.69
2017-05-11T02:08:57.330Z,997.67
2017-05-11T02:09:23.517Z,997.71
2017-05-11T02:09:49.606Z,997.68
2017-05-11T02:10:15.729Z,997.69
2017-05-11T02:10:41.855Z,997.69
2017-05-11T02:11:07.944Z,997.69
2017-05-11T02:11:34.107Z,997.65
2017-05-11T02:12:00.208Z,997.66
2017-05-11T02:12:26.305Z,997.68
2017-05-11T02:12:52.464Z,997.67
2017-05-11T02:13:18.578Z,997.64
2017-05-11T02:13:44.745Z,997.61
2017-05-11T02:14:10.876Z,997.67
2017-05-11T02:14:37.018Z,997.65
2017-05-11T02:15:03.106Z,997.61
2017-05-11T02:15:29.292Z,997.6
2017-05-11T02:15:55.389Z,997.6
2017-05-11T02:16:21.477Z,997.6
2017-05-11T02:16:47.579Z,997.57
2017-05-11T02:17:13.736Z,997.59
2017-05-11T02:17:39.915Z,997.63
2017-05-11T02:18:06.005Z,997.59
2017-05-11T02:18:32.139Z,997.57
2017-05-11T02:18:58.275Z,997.62
2017-05-11T02:19:24.479Z,997.56
2017-05-11T02:19:50.568Z,997.59
2017-05-11T02:20:16.670Z,997.63
2017-05-11T02:20:42.794Z,997.61
2017-05-11T02:21:08.884Z,997.62
2017-05-11T02:21:35.010Z,997.55
2017-05-11T02:22:01.170Z,997.59
2017-05-11T02:22:27.332Z,997.6
2017-05-11T02:22:53.543Z,997.57
2017-05-11T02:23:19.685Z,997.56
2017-05-11T02:23:45.814Z,997.57
2017-05-11T02:24:11.940Z,997.53
2017-05-11T02:24:38.123Z,997.51
2017-05-11T02:25:04.253Z,997.56
2017-05-11T02:25:30.385Z,997.5
2017-05-11T02:25:56.498Z,997.53
2017-05-11T02:26:22.596Z,997.51
2017-05-11T02:26:48.755Z,997.49
2017-05-11T02:27:14.895Z,997.48
2017-05-11T02:27:41.040Z,997.49
2017-05-11T02:28:07.209Z,997.5
2017-05-11T02:28:33.341Z,997.49
2017-05-11T02:28:59.502Z,997.45
2017-05-11T02:29:25.664Z,997.48
2017-05-11T02:29:51.762Z,997.47
2017-05-11T02:30:17.951Z,997.43
2017-05-11T02:30:44.041Z,997.47
2017-05-11T02:31:10.136Z,997.48
2017-05-11T02:31:36.269Z,997.45
2017-05-11T02:32:02.387Z,997.43
2017-05-11T02:32:28.500Z,997.42
2017-05-11T02:32:54.607Z,997.44
2017-05-11T02:33:20.758Z,997.43
2017-05-11T02:33:46.871Z,997.43
2017-05-11T02:34:13.001Z,997.43
2017-05-11T02:34:39.114Z,997.45
2017-05-11T02:35:05.217Z,997.44
2017-05-11T02:35:31.360Z,997.42
2017-05-11T02:35:57.470Z,997.41
2017-05-11T02:36:23.578Z,997.43
2017-05-11T02:36:49.672Z,997.39
2017-05-11T02:37:15.761Z,997.39
2017-05-11T02:37:41.865Z,997.38
2017-05-11T02:38:07.963Z,997.42
2017-05-11T02:38:34.052Z,997.42
2017-05-11T02:39:00.175Z,997.36
2017-05-11T02:39:26.333Z,997.38
2017-05-11T02:39:52.419Z,997.36
2017-05-11T02:40:18.540Z,997.38
2017-05-11T02:40:44.674Z,997.34
2017-05-11T02:41:10.841Z,997.36
2017-05-11T02:41:36.936Z,997.34
2017-05-11T02:42:03.123Z,997.37
2017-05-11T02:42:29.246Z,997.33
2017-05-11T02:42:55.357Z,997.34
2017-05-11T02:43:21.462Z,997.34
2017-05-11T02:43:47.608Z,997.35
2017-05-11T02:44:13.698Z,997.34
2017-05-11T02:44:39.880Z,997.31
2017-05-11T02:45:05.975Z,997.3
2017-05-11T02:45:32.124Z,997.34
2017-05-11T02:45:58.214Z,997.3
2017-05-11T02:46:24.330Z,997.31
2017-05-11T02:46:50.464Z,997.27
2017-05-11T02:47:16.586Z,997.23
2017-05-11T02:47:42.678Z,997.26
2017-05-11T02:48:08.805Z,997.22
2017-05-11T02:48:34.926Z,997.25
2017-05-11T02:49:01.036Z,997.21
2017-05-11T02:49:27.135Z,997.24
2017-05-11T02:49:53.294Z,997.27
2017-05-11T02:50:19.405Z,997.24
2017-05-11T02:50:45.530Z,997.26
2017-05-11T02:51:11.644Z,997.26
2017-05-11T02:51:37.746Z,997.24
2017-05-11T02:52:03.846Z,997.21
2017-05-11T02:52:29.961Z,997.2
2017-05-11T02:52:56.109Z,997.21
2017-05-11T02:53:22.244Z,997.17
2017-05-11T02:53:48.381Z,997.19
2017-05-11T02:54:14.503Z,997.18
2017-05-11T02:54:40.706Z,997.17
2017-05-11T02:55:06.806Z,997.12
2017-05-11T02:55:32.900Z,997.18
2017-05-11T02:55:59.004Z,997.16
2017-05-11T02:56:25.146Z,997.16
2017-05-11T02:56:51.277Z,997.15
2017-05-11T02:57:17.361Z,997.13
2017-05-11T02:57:43.457Z,997.14
2017-05-11T02:58:09.615Z,997.16
2017-05-11T02:58:35.704Z,997.13
2017-05-11T02:59:01.897Z,997.12
2017-05-11T02:59:28.055Z,997.11
2017-05-11T02:59:54.177Z,997.15
2017-05-11T03:00:20.312Z,997.12
2017-05-11T03:00:46.422Z,997.16
2017-05-11T03:01:12.601Z,997.19
2017-05-11T03:01:38.689Z,997.15
2017-05-11T03:02:04.793Z,997.15
2017-05-11T03:02:30.884Z,997.13
2017-05-11T03:02:57.069Z,997.18
2017-05-11T03:03:23.261Z,997.12
2017-05-11T03:03:49.376Z,997.14
2017-05-11T03:04:15.536Z,997.16
2017-05-11T03:04:41.631Z,997.11
2017-05-11T03:05:07.767Z,997.09
2017-05-11T03:05:33.927Z,997.1
2017-05-11T03:06:00.052Z,997.08
2017-05-11T03:06:26.165Z,997.05
2017-05-11T03:06:52.266Z,997.03
2017-05-11T03:07:18.369Z,997.06
2017-05-11T03:07:44.507Z,997.05
2017-05-11T03:08:10.603Z,997.03
2017-05-11T03:08:36.761Z,996.99
2017-05-11T03:09:02.918Z,997.07
2017-05-11T03:09:29.017Z,996.97
2017-05-11T03:09:55.132Z,997.02
2017-05-11T03:10:21.233Z,997.03
2017-05-11T03:10:47.365Z,996.98
2017-05-11T03:11:13.475Z,996.97
2017-05-11T03:11:39.600Z,996.96
2017-05-11T03:12:05.755Z,996.91
2017-05-11T03:12:31.845Z,996.96
2017-05-11T03:12:57.988Z,996.95
2017-05-11T03:13:24.211Z,996.95
2017-05-11T03:13:50.335Z,996.95
2017-05-11T03:14:16.466Z,996.97
2017-05-11T03:14:42.650Z,996.91
2017-05-11T03:15:08.848Z,996.91
2017-05-11T03:15:34.980Z,996.89
2017-05-11T03:16:01.068Z,996.9
2017-05-11T03:16:27.190Z,996.87
2017-05-11T03:16:53.296Z,996.88
2017-05-11T03:17:19.413Z,996.85
2017-05-11T03:17:45.525Z,996.82
2017-05-11T03:18:11.661Z,996.79
2017-05-11T03:18:37.811Z,996.76
2017-05-11T03:19:03.987Z,996.84
2017-05-11T03:19:30.127Z,996.76
2017-05-11T03:19:56.222Z,996.81
2017-05-11T03:20:22.382Z,996.82
2017-05-11T03:20:48.473Z,996.78
2017-05-11T03:21:14.585Z,996.74
2017-05-11T03:21:40.718Z,996.77
2017-05-11T03:22:06.814Z,996.79
2017-05-11T03:22:32.901Z,996.79
2017-05-11T03:22:59.033Z,996.79
2017-05-11T03:23:25.184Z,996.79
2017-05-11T03:23:51.323Z,996.74
2017-05-11T03:24:17.473Z,996.81
2017-05-11T03:24:43.635Z,996.8
2017-05-11T03:25:09.767Z,996.74
2017-05-11T03:25:35.889Z,996.73
2017-05-11T03:26:02.022Z,996.76
2017-05-11T03:26:28.110Z,996.78
2017-05-11T03:26:54.255Z,996.76
2017-05-11T03:27:20.416Z,996.73
2017-05-11T03:27:46.556Z,996.76
2017-05-11T03:28:12.694Z,996.74
2017-05-11T03:28:38.854Z,996.73
2017-05-11T03:29:04.976Z,996.72
2017-05-11T03:29:31.140Z,996.76
2017-05-11T03:29:57.269Z,996.74
2017-05-11T03:30:23.413Z,996.76
2017-05-11T03:30:49.545Z,996.68
2017-05-11T03:31:15.637Z,996.7
2017-05-11T03:31:41.750Z,996.72
2017-05-11T03:32:07.857Z,996.72
2017-05-11T03:32:33.993Z,996.7
2017-05-11T03:33:00.065Z,996.69
2017-05-11T03:33:26.194Z,996.71
2017-05-11T03:33:52.372Z,996.71
2017-05-11T03:34:18.509Z,996.74
2017-05-11T03:34:44.633Z,996.71
2017-05-11T03:35:10.765Z,996.71
2017-05-11T03:35:36.855Z,996.71
2017-05-11T03:36:02.975Z,996.74
2017-05-11T03:36:29.067Z,996.69
2017-05-11T03:36:55.218Z,996.68
2017-05-11T03:37:21.372Z,996.68
2017-05-11T03:37:47.482Z,996.71
2017-05-11T03:38:13.663Z,996.68
2017-05-11T03:38:39.848Z,996.71
2017-05-11T03:39:05.938Z,996.72
2017-05-11T03:39:32.086Z,996.73
2017-05-11T03:39:58.246Z,996.75
2017-05-11T03:40:24.334Z,996.71
2017-05-11T03:40:50.476Z,996.69
2017-05-11T03:41:16.651Z,996.72
2017-05-11T03:41:42.771Z,996.74
2017-05-11T03:42:08.901Z,996.69
2017-05-11T03:42:35.014Z,996.71
2017-05-11T03:43:01.136Z,996.67
2017-05-11T03:43:27.295Z,996.68
2017-05-11T03:43:53.534Z,996.67
2017-05-11T03:44:19.654Z,996.63
2017-05-11T03:44:45.785Z,996.63
2017-05-11T03:45:11.903Z,996.63
2017-05-11T03:45:37.988Z,996.58
2017-05-11T03:46:04.123Z,996.59
2017-05-11T03:46:30.245Z,996.61
2017-05-11T03:46:56.343Z,996.63
2017-05-11T03:47:22.432Z,996.63
2017-05-11T03:47:48.578Z,996.59
2017-05-11T03:48:14.766Z,996.56
2017-05-11T03:48:40.936Z,996.58
2017-05-11T03:49:07.077Z,996.59
2017-05-11T03:49:33.209Z,996.58
2017-05-11T03:49:59.303Z,996.62
2017-05-11T03:50:25.419Z,996.59
2017-05-11T03:50:51.575Z,996.6
2017-05-11T03:51:17.702Z,996.56
2017-05-11T03:51:43.812Z,996.61
2017-05-11T03:52:09.938Z,996.58
2017-05-11T03:52:36.026Z,996.58
2017-05-11T03:53:02.188Z,996.63
2017-05-11T03:53:28.365Z,996.64
2017-05-11T03:53:54.484Z,996.63
2017-05-11T03:54:20.637Z,996.61
2017-05-11T03:54:46.791Z,996.57
2017-05-11T03:55:12.879Z,996.61
2017-05-11T03:55:39.007Z,996.57
2017-05-11T03:56:05.112Z,996.57
2017-05-11T03:56:31.221Z,996.54
2017-05-11T03:56:57.345Z,996.58
2017-05-11T03:57:23.475Z,996.59
2017-05-11T03:57:49.612Z,996.56
2017-05-11T03:58:15.741Z,996.54
2017-05-11T03:58:41.878Z,996.54
2017-05-11T03:59:08.005Z,996.6
2017-05-11T03:59:34.163Z,996.6
2017-05-11T04:00:00.269Z,996.55
2017-05-11T04:00:26.369Z,996.54
2017-05-11T04:00:52.499Z,996.53
2017-05-11T04:01:18.587Z,996.54
2017-05-11T04:01:44.680Z,996.53
2017-05-11T04:02:10.811Z,996.53
2017-05-11T04:02:36.930Z,996.5
2017-05-11T04:03:03.019Z,996.51
2017-05-11T04:03:29.149Z,996.54
2017-05-11T04:03:55.270Z,996.52
2017-05-11T04:04:21.403Z,996.53
2017-05-11T04:04:47.544Z,996.51
2017-05-11T04:05:13.688Z,996.48
2017-05-11T04:05:39.848Z,996.47
2017-05-11T04:06:05.997Z,996.46
2017-05-11T04:06:32.085Z,996.45
2017-05-11T04:06:58.246Z,996.5
2017-05-11T04:07:24.343Z,996.49
2017-05-11T04:07:50.429Z,996.52
2017-05-11T04:08:16.532Z,996.49
2017-05-11T04:08:42.689Z,996.45
2017-05-11T04:09:08.801Z,996.5
2017-05-11T04:09:34.905Z,996.47
2017-05-11T04:10:01.036Z,996.47
2017-05-11T04:10:27.122Z,996.45
2017-05-11T04:10:53.244Z,996.47
2017-05-11T04:11:19.345Z,996.48
2017-05-11T04:11:45.460Z,996.43
2017-05-11T04:12:11.578Z,996.44
2017-05-11T04:12:37.708Z,996.43
2017-05-11T04:13:03.826Z,996.48
2017-05-11T04:13:29.966Z,996.45
2017-05-11T04:13:56.129Z,996.42
2017-05-11T04:14:22.249Z,996.45
2017-05-11T04:14:48.397Z,996.47
2017-05-11T04:15:14.536Z,996.45
2017-05-11T04:15:40.678Z,996.42
2017-05-11T04:16:06.839Z,996.46
2017-05-11T04:16:32.931Z,996.45
2017-05-11T04:16:59.067Z,996.44
2017-05-11T04:17:25.172Z,996.44
2017-05-11T04:17:51.319Z,996.43
2017-05-11T04:18:17.408Z,996.4
2017-05-11T04:18:43.568Z,996.42
2017-05-11T04:19:09.721Z,996.39
2017-05-11T04:19:35.812Z,996.36
2017-05-11T04:20:01.964Z,996.35
2017-05-11T04:20:28.083Z,996.4
2017-05-11T04:20:54.267Z,996.38
2017-05-11T04:21:20.359Z,996.35
2017-05-11T04:21:46.497Z,996.36
2017-05-11T04:22:12.603Z,996.37
2017-05-11T04:22:38.729Z,996.34
2017-05-11T04:23:04.841Z,996.35
2017-05-11T04:23:30.995Z,996.35
2017-05-11T04:23:57.129Z,996.33
2017-05-11T04:24:23.300Z,996.32
2017-05-11T04:24:49.414Z,996.31
2017-05-11T04:25:15.546Z,996.3
2017-05-11T04:25:41.686Z,996.31
2017-05-11T04:26:07.812Z,996.31
2017-05-11T04:26:33.901Z,996.34
2017-05-11T04:27:00.000Z,996.29
2017-05-11T04:27:26.105Z,996.31
2017-05-11T04:27:52.213Z,996.3
2017-05-11T04:28:18.312Z,996.3
2017-05-11T04:28:44.524Z,996.32
2017-05-11T04:29:10.613Z,996.32
2017-05-11T04:29:36.708Z,996.31
2017-05-11T04:30:02.892Z,996.26
2017-05-11T04:30:28.983Z,996.26
2017-05-11T04:30:55.121Z,996.27
2017-05-11T04:31:21.222Z,996.26
2017-05-11T04:31:47.346Z,996.29
2017-05-11T04:32:13.501Z,996.23
2017-05-11T04:32:39.616Z,996.27
2017-05-11T04:33:05.711Z,996.29
2017-05-11T04:33:31.842Z,996.24
2017-05-11T04:33:57.986Z,996.27
2017-05-11T04:34:24.123Z,996.23
2017-05-11T04:34:50.286Z,996.22
2017-05-11T04:35:16.408Z,996.21
2017-05-11T04:35:42.523Z,996.21
2017-05-11T04:36:08.653Z,996.23
2017-05-11T04:36:34.782Z,996.26
2017-05-11T04:37:00.903Z,996.23
2017-05-11T04:37:26.995Z,996.25
2017-05-11T04:37:53.134Z,996.29
2017-05-11T04:38:19.240Z,996.26
2017-05-11T04:38:45.388Z,996.23
2017-05-11T04:39:11.479Z,996.24
2017-05-11T04:39:37.580Z,996.21
2017-05-11T04:40:03.731Z,996.22
2017-05-11T04:40:29.818Z,996.21
2017-05-11T04:40:55.945Z,996.2
2017-05-11T04:41:22.077Z,996.23
2017-05-11T04:41:48.160Z,996.25
2017-05-11T04:42:14.257Z,996.2
2017-05-11T04:42:40.349Z,996.22
2017-05-11T04:43:06.478Z,996.22
2017-05-11T04:43:32.604Z,996.2
2017-05-11T04:43:58.742Z,996.22
2017-05-11T04:44:24.922Z,996.15
2017-05-11T04:44:51.079Z,996.19
2017-05-11T04:45:17.240Z,996.17
2017-05-11T04:45:43.338Z,996.23
2017-05-11T04:46:09.467Z,996.2
2017-05-11T04:46:35.556Z,996.17
2017-05-11T04:47:01.698Z,996.22
2017-05-11T04:47:27.803Z,996.16
2017-05-11T04:47:53.952Z,996.14
2017-05-11T04:48:20.083Z,996.15
2017-05-11T04:48:46.192Z,996.16
2017-05-11T04:49:12.319Z,996.15
2017-05-11T04:49:38.481Z,996.14
2017-05-11T04:50:04.595Z,996.17
2017-05-11T04:50:30.688Z,996.16
2017-05-11T04:50:56.793Z,996.19
2017-05-11T04:51:22.965Z,996.14
2017-05-11T04:51:49.078Z,996.14
2017-05-11T04:52:15.211Z,996.13
2017-05-11T04:52:41.332Z,996.14
2017-05-11T04:53:07.468Z,996.18
2017-05-11T04:53:33.601Z,996.14
2017-05-11T04:53:59.756Z,996.19
2017-05-11T04:54:25.894Z,996.18
2017-05-11T04:54:52.022Z,996.15
2017-05-11T04:55:18.125Z,996.2
2017-05-11T04:55:44.235Z,996.2
2017-05-11T04:56:10.360Z,996.2
2017-05-11T04:56:36.494Z,996.19
2017-05-11T04:57:02.549Z,996.18
2017-05-11T04:57:28.642Z,996.18
2017-05-11T04:57:54.826Z,996.19
2017-05-11T04:58:20.945Z,996.13
2017-05-11T04:58:47.033Z,996.18
2017-05-11T04:59:13.189Z,996.15
2017-05-11T04:59:39.333Z,996.18
2017-05-11T05:00:05.464Z,996.15
2017-05-11T05:00:31.579Z,996.12
2017-05-11T05:00:57.673Z,996.14
2017-05-11T05:01:23.778Z,996.14
2017-05-11T05:01:49.872Z,996.15
2017-05-11T05:02:15.962Z,996.15
2017-05-11T05:02:42.068Z,996.16
2017-05-11T05:03:08.187Z,996.13
2017-05-11T05:03:34.276Z,996.16
2017-05-11T05:04:00.412Z,996.19
2017-05-11T05:04:26.537Z,996.17
2017-05-11T05:04:52.662Z,996.16
2017-05-11T05:05:18.754Z,996.13
2017-05-11T05:05:44.842Z,996.12
2017-05-11T05:06:11.004Z,996.12
2017-05-11T05:06:37.097Z,996.1
2017-05-11T05:07:03.236Z,996.14
2017-05-11T05:07:29.391Z,996.11
2017-05-11T05:07:55.486Z,996.14
2017-05-11T05:08:21.600Z,996.12
2017-05-11T05:08:47.751Z,996.09
2017-05-11T05:09:13.883Z,996.11
2017-05-11T05:09:40.042Z,996.06
2017-05-11T05:10:06.141Z,996.03
2017-05-11T05:10:32.258Z,996.04
2017-05-11T05:10:58.363Z,996.08
2017-05-11T05:11:24.461Z,996.08
2017-05-11T05:11:50.550Z,996.09
2017-05-11T05:12:16.649Z,996.11
2017-05-11T05:12:42.756Z,996.11
2017-05-11T05:13:08.892Z,996.1
2017-05-11T05:13:34.992Z,996.06
2017-05-11T05:14:01.123Z,996.08
2017-05-11T05:14:27.213Z,996.04
2017-05-11T05:14:53.333Z,996.07
2017-05-11T05:15:19.464Z,996.08
2017-05-11T05:15:45.607Z,996.07
2017-05-11T05:16:11.696Z,996.08
2017-05-11T05:16:37.830Z,996.1
2017-05-11T05:17:03.977Z,996.03
2017-05-11T05:17:30.125Z,996.02
2017-05-11T05:17:56.196Z,996.05
2017-05-11T05:18:22.349Z,996.05
2017-05-11T05:18:48.488Z,996.06
2017-05-11T05:19:14.616Z,996.08
2017-05-11T05:19:40.773Z,996.04
2017-05-11T05:20:06.880Z,996.07
2017-05-11T05:20:32.977Z,996.08
2017-05-11T05:20:59.084Z,996.02
2017-05-11T05:21:25.225Z,996.03
2017-05-11T05:21:51.325Z,996.06
2017-05-11T05:22:17.489Z,996.07
2017-05-11T05:22:43.612Z,996.05
2017-05-11T05:23:09.718Z,996.05
2017-05-11T05:23:35.852Z,996.02
2017-05-11T05:24:01.996Z,996
2017-05-11T05:24:28.157Z,996.01
2017-05-11T05:24:54.272Z,996.01
2017-05-11T05:25:20.418Z,996.01
2017-05-11T05:25:46.579Z,995.99
2017-05-11T05:26:12.671Z,995.97
2017-05-11T05:26:38.782Z,996.05